sensor_id;sensor_type;location;lat;lon;timestamp;P1;durP1;ratioP1;P2;durP2;ratioP2
42760;SDS011;31672;47.638;19.026;2023-07-02T00:00:40;14.60;;;11.10;;
42760;SDS011;31672;47.638;19.026;2023-07-02T00:05:44;12.65;;;9.75;;
42760;SDS011;31672;47.638;19.026;2023-07-02T00:10:48;10.93;;;8.93;;
42760;SDS011;31672;47.638;19.026;2023-07-02T00:15:52;11.13;;;9.15;;
42760;SDS011;31672;47.638;19.026;2023-07-02T00:20:56;13.43;;;10.35;;
42760;SDS011;31672;47.638;19.026;2023-07-02T00:25:59;13.95;;;9.15;;
42760;SDS011;31672;47.638;19.026;2023-07-02T00:31:03;11.27;;;10.00;;
42760;SDS011;31672;47.638;19.026;2023-07-02T00:36:07;12.63;;;9.70;;
42760;SDS011;31672;47.638;19.026;2023-07-02T00:41:17;12.60;;;9.60;;
42760;SDS011;31672;47.638;19.026;2023-07-02T00:46:21;11.85;;;8.65;;
42760;SDS011;31672;47.638;19.026;2023-07-02T00:51:28;12.68;;;9.32;;
42760;SDS011;31672;47.638;19.026;2023-07-02T00:56:32;9.93;;;8.63;;
42760;SDS011;31672;47.638;19.026;2023-07-02T01:01:36;10.05;;;8.40;;
42760;SDS011;31672;47.638;19.026;2023-07-02T01:06:41;11.43;;;8.23;;
42760;SDS011;31672;47.638;19.026;2023-07-02T01:11:46;10.77;;;7.85;;
42760;SDS011;31672;47.638;19.026;2023-07-02T01:16:55;9.25;;;7.30;;
42760;SDS011;31672;47.638;19.026;2023-07-02T01:22:02;10.60;;;7.30;;
42760;SDS011;31672;47.638;19.026;2023-07-02T01:27:06;10.50;;;7.40;;
42760;SDS011;31672;47.638;19.026;2023-07-02T01:32:10;9.15;;;7.10;;
42760;SDS011;31672;47.638;19.026;2023-07-02T01:37:15;10.68;;;6.75;;
42760;SDS011;31672;47.638;19.026;2023-07-02T01:42:22;7.90;;;6.90;;
42760;SDS011;31672;47.638;19.026;2023-07-02T01:47:25;11.55;;;7.00;;
42760;SDS011;31672;47.638;19.026;2023-07-02T01:52:29;7.75;;;6.53;;
42760;SDS011;31672;47.638;19.026;2023-07-02T01:57:38;9.25;;;6.82;;
42760;SDS011;31672;47.638;19.026;2023-07-02T02:02:42;9.30;;;6.43;;
42760;SDS011;31672;47.638;19.026;2023-07-02T02:07:46;9.15;;;7.05;;
42760;SDS011;31672;47.638;19.026;2023-07-02T02:12:50;9.82;;;6.93;;
42760;SDS011;31672;47.638;19.026;2023-07-02T02:17:53;7.57;;;6.25;;
42760;SDS011;31672;47.638;19.026;2023-07-02T02:22:58;8.23;;;5.95;;
42760;SDS011;31672;47.638;19.026;2023-07-02T02:28:01;8.30;;;6.00;;
42760;SDS011;31672;47.638;19.026;2023-07-02T02:33:05;8.27;;;5.60;;
42760;SDS011;31672;47.638;19.026;2023-07-02T02:38:09;8.65;;;6.25;;
42760;SDS011;31672;47.638;19.026;2023-07-02T02:43:14;6.63;;;5.03;;
42760;SDS011;31672;47.638;19.026;2023-07-02T02:48:19;9.15;;;5.10;;
42760;SDS011;31672;47.638;19.026;2023-07-02T02:53:25;6.13;;;4.97;;
42760;SDS011;31672;47.638;19.026;2023-07-02T02:58:29;6.05;;;4.72;;
42760;SDS011;31672;47.638;19.026;2023-07-02T03:03:33;5.90;;;5.13;;
42760;SDS011;31672;47.638;19.026;2023-07-02T03:08:41;8.15;;;4.90;;
42760;SDS011;31672;47.638;19.026;2023-07-02T03:13:45;7.85;;;5.20;;
42760;SDS011;31672;47.638;19.026;2023-07-02T03:18:49;7.68;;;4.78;;
42760;SDS011;31672;47.638;19.026;2023-07-02T03:23:53;7.40;;;4.93;;
42760;SDS011;31672;47.638;19.026;2023-07-02T03:28:57;6.55;;;4.10;;
42760;SDS011;31672;47.638;19.026;2023-07-02T03:34:06;5.50;;;4.13;;
42760;SDS011;31672;47.638;19.026;2023-07-02T03:39:12;6.18;;;3.78;;
42760;SDS011;31672;47.638;19.026;2023-07-02T03:44:15;10.32;;;4.32;;
42760;SDS011;31672;47.638;19.026;2023-07-02T03:49:20;5.88;;;4.40;;
42760;SDS011;31672;47.638;19.026;2023-07-02T03:54:25;6.25;;;4.00;;
42760;SDS011;31672;47.638;19.026;2023-07-02T03:59:28;6.97;;;4.38;;
42760;SDS011;31672;47.638;19.026;2023-07-02T04:04:32;5.45;;;4.30;;
42760;SDS011;31672;47.638;19.026;2023-07-02T04:09:36;6.93;;;4.32;;
42760;SDS011;31672;47.638;19.026;2023-07-02T04:14:39;6.20;;;4.88;;
42760;SDS011;31672;47.638;19.026;2023-07-02T04:19:44;6.30;;;5.18;;
42760;SDS011;31672;47.638;19.026;2023-07-02T04:24:47;6.35;;;4.68;;
42760;SDS011;31672;47.638;19.026;2023-07-02T04:29:53;8.10;;;4.60;;
42760;SDS011;31672;47.638;19.026;2023-07-02T04:34:59;6.38;;;4.30;;
42760;SDS011;31672;47.638;19.026;2023-07-02T04:40:03;8.02;;;4.47;;
42760;SDS011;31672;47.638;19.026;2023-07-02T04:45:14;6.20;;;4.30;;
42760;SDS011;31672;47.638;19.026;2023-07-02T04:50:20;6.82;;;4.82;;
42760;SDS011;31672;47.638;19.026;2023-07-02T04:55:24;7.80;;;4.68;;
42760;SDS011;31672;47.638;19.026;2023-07-02T05:00:28;5.60;;;4.40;;
42760;SDS011;31672;47.638;19.026;2023-07-02T05:05:32;8.20;;;4.32;;
42760;SDS011;31672;47.638;19.026;2023-07-02T05:10:36;6.90;;;4.40;;
42760;SDS011;31672;47.638;19.026;2023-07-02T05:15:39;6.55;;;4.13;;
42760;SDS011;31672;47.638;19.026;2023-07-02T05:20:43;7.88;;;4.03;;
42760;SDS011;31672;47.638;19.026;2023-07-02T05:25:47;5.78;;;4.30;;
42760;SDS011;31672;47.638;19.026;2023-07-02T05:30:51;10.15;;;4.60;;
42760;SDS011;31672;47.638;19.026;2023-07-02T05:35:55;7.20;;;4.20;;
42760;SDS011;31672;47.638;19.026;2023-07-02T05:40:59;6.65;;;4.40;;
42760;SDS011;31672;47.638;19.026;2023-07-02T05:46:04;9.18;;;4.47;;
42760;SDS011;31672;47.638;19.026;2023-07-02T05:51:08;6.20;;;4.80;;
42760;SDS011;31672;47.638;19.026;2023-07-02T05:56:11;6.65;;;4.15;;
42760;SDS011;31672;47.638;19.026;2023-07-02T06:01:15;5.97;;;4.63;;
42760;SDS011;31672;47.638;19.026;2023-07-02T06:06:20;9.93;;;4.57;;
42760;SDS011;31672;47.638;19.026;2023-07-02T06:11:29;8.02;;;4.50;;
42760;SDS011;31672;47.638;19.026;2023-07-02T06:16:33;6.68;;;3.97;;
42760;SDS011;31672;47.638;19.026;2023-07-02T06:21:37;5.07;;;3.65;;
42760;SDS011;31672;47.638;19.026;2023-07-02T06:26:41;5.45;;;3.85;;
42760;SDS011;31672;47.638;19.026;2023-07-02T06:31:44;5.90;;;3.80;;
42760;SDS011;31672;47.638;19.026;2023-07-02T06:36:48;6.32;;;3.70;;
42760;SDS011;31672;47.638;19.026;2023-07-02T06:41:52;4.20;;;3.38;;
42760;SDS011;31672;47.638;19.026;2023-07-02T06:46:55;5.03;;;3.30;;
42760;SDS011;31672;47.638;19.026;2023-07-02T06:51:59;3.45;;;2.72;;
42760;SDS011;31672;47.638;19.026;2023-07-02T06:57:03;5.20;;;3.15;;
42760;SDS011;31672;47.638;19.026;2023-07-02T07:02:07;5.03;;;3.13;;
42760;SDS011;31672;47.638;19.026;2023-07-02T07:07:12;5.43;;;3.20;;
42760;SDS011;31672;47.638;19.026;2023-07-02T07:12:16;6.20;;;3.40;;
42760;SDS011;31672;47.638;19.026;2023-07-02T07:17:19;3.88;;;2.60;;
42760;SDS011;31672;47.638;19.026;2023-07-02T07:22:23;5.80;;;2.80;;
42760;SDS011;31672;47.638;19.026;2023-07-02T07:27:27;4.40;;;2.65;;
42760;SDS011;31672;47.638;19.026;2023-07-02T07:32:31;4.07;;;2.92;;
42760;SDS011;31672;47.638;19.026;2023-07-02T07:37:35;4.43;;;2.63;;
42760;SDS011;31672;47.638;19.026;2023-07-02T07:42:39;4.78;;;2.70;;
42760;SDS011;31672;47.638;19.026;2023-07-02T07:47:45;4.28;;;2.78;;
42760;SDS011;31672;47.638;19.026;2023-07-02T07:52:49;4.07;;;2.35;;
42760;SDS011;31672;47.638;19.026;2023-07-02T07:57:54;4.70;;;2.95;;
42760;SDS011;31672;47.638;19.026;2023-07-02T08:02:57;4.32;;;2.83;;
42760;SDS011;31672;47.638;19.026;2023-07-02T08:08:02;3.80;;;2.70;;
42760;SDS011;31672;47.638;19.026;2023-07-02T08:13:07;5.00;;;3.40;;
42760;SDS011;31672;47.638;19.026;2023-07-02T08:18:11;4.20;;;2.60;;
42760;SDS011;31672;47.638;19.026;2023-07-02T08:23:16;3.75;;;2.80;;
42760;SDS011;31672;47.638;19.026;2023-07-02T08:28:20;3.92;;;2.72;;
42760;SDS011;31672;47.638;19.026;2023-07-02T08:33:23;3.08;;;2.45;;
42760;SDS011;31672;47.638;19.026;2023-07-02T08:38:27;3.45;;;2.60;;
42760;SDS011;31672;47.638;19.026;2023-07-02T08:43:31;4.03;;;2.65;;
42760;SDS011;31672;47.638;19.026;2023-07-02T08:48:35;4.00;;;2.40;;
42760;SDS011;31672;47.638;19.026;2023-07-02T08:53:38;4.80;;;2.75;;
42760;SDS011;31672;47.638;19.026;2023-07-02T08:58:42;3.55;;;2.80;;
42760;SDS011;31672;47.638;19.026;2023-07-02T09:03:45;3.22;;;2.63;;
42760;SDS011;31672;47.638;19.026;2023-07-02T09:08:49;4.28;;;3.33;;
42760;SDS011;31672;47.638;19.026;2023-07-02T09:13:53;4.55;;;3.03;;
42760;SDS011;31672;47.638;19.026;2023-07-02T09:24:12;5.55;;;4.13;;
42760;SDS011;31672;47.638;19.026;2023-07-02T09:29:29;5.10;;;3.63;;
42760;SDS011;31672;47.638;19.026;2023-07-02T09:34:35;5.85;;;3.42;;
42760;SDS011;31672;47.638;19.026;2023-07-02T09:39:42;5.90;;;3.65;;
42760;SDS011;31672;47.638;19.026;2023-07-02T09:44:46;6.03;;;3.70;;
42760;SDS011;31672;47.638;19.026;2023-07-02T09:49:54;4.53;;;3.05;;
42760;SDS011;31672;47.638;19.026;2023-07-02T09:55:08;5.05;;;3.53;;
42760;SDS011;31672;47.638;19.026;2023-07-02T10:00:13;6.22;;;3.10;;
42760;SDS011;31672;47.638;19.026;2023-07-02T10:10:35;4.97;;;3.50;;
42760;SDS011;31672;47.638;19.026;2023-07-02T10:15:39;4.15;;;3.13;;
42760;SDS011;31672;47.638;19.026;2023-07-02T10:20:43;4.40;;;3.33;;
42760;SDS011;31672;47.638;19.026;2023-07-02T10:25:46;4.40;;;2.97;;
42760;SDS011;31672;47.638;19.026;2023-07-02T10:30:50;3.42;;;2.78;;
42760;SDS011;31672;47.638;19.026;2023-07-02T10:35:56;3.75;;;2.88;;
42760;SDS011;31672;47.638;19.026;2023-07-02T10:40:59;4.07;;;2.85;;
42760;SDS011;31672;47.638;19.026;2023-07-02T10:46:04;4.65;;;2.80;;
42760;SDS011;31672;47.638;19.026;2023-07-02T10:51:11;7.40;;;3.08;;
42760;SDS011;31672;47.638;19.026;2023-07-02T10:56:17;3.30;;;2.50;;
42760;SDS011;31672;47.638;19.026;2023-07-02T11:01:24;4.28;;;2.78;;
42760;SDS011;31672;47.638;19.026;2023-07-02T11:06:33;6.45;;;3.08;;
42760;SDS011;31672;47.638;19.026;2023-07-02T11:11:36;4.60;;;3.05;;
42760;SDS011;31672;47.638;19.026;2023-07-02T11:16:40;5.80;;;2.60;;
42760;SDS011;31672;47.638;19.026;2023-07-02T11:21:50;4.82;;;2.50;;
42760;SDS011;31672;47.638;19.026;2023-07-02T11:27:04;3.88;;;2.25;;
42760;SDS011;31672;47.638;19.026;2023-07-02T11:32:09;6.40;;;2.70;;
42760;SDS011;31672;47.638;19.026;2023-07-02T11:37:14;3.83;;;2.33;;
42760;SDS011;31672;47.638;19.026;2023-07-02T11:42:18;3.50;;;2.50;;
42760;SDS011;31672;47.638;19.026;2023-07-02T11:47:23;4.63;;;2.45;;
42760;SDS011;31672;47.638;19.026;2023-07-02T11:52:28;3.83;;;2.70;;
42760;SDS011;31672;47.638;19.026;2023-07-02T11:57:32;3.15;;;2.28;;
42760;SDS011;31672;47.638;19.026;2023-07-02T12:02:36;4.35;;;2.22;;
42760;SDS011;31672;47.638;19.026;2023-07-02T12:07:40;7.20;;;2.20;;
42760;SDS011;31672;47.638;19.026;2023-07-02T12:12:44;4.50;;;2.20;;
42760;SDS011;31672;47.638;19.026;2023-07-02T12:17:47;3.88;;;2.20;;
42760;SDS011;31672;47.638;19.026;2023-07-02T12:22:51;3.30;;;2.30;;
42760;SDS011;31672;47.638;19.026;2023-07-02T12:27:55;4.45;;;1.98;;
42760;SDS011;31672;47.638;19.026;2023-07-02T12:32:58;3.95;;;2.22;;
42760;SDS011;31672;47.638;19.026;2023-07-02T12:38:02;2.90;;;1.70;;
42760;SDS011;31672;47.638;19.026;2023-07-02T12:43:07;2.38;;;1.70;;
42760;SDS011;31672;47.638;19.026;2023-07-02T12:48:11;2.17;;;1.50;;
42760;SDS011;31672;47.638;19.026;2023-07-02T12:53:15;1.55;;;1.27;;
42760;SDS011;31672;47.638;19.026;2023-07-02T12:58:18;1.25;;;0.98;;
42760;SDS011;31672;47.638;19.026;2023-07-02T13:03:22;0.88;;;0.73;;
42760;SDS011;31672;47.638;19.026;2023-07-02T13:08:28;2.15;;;0.80;;
42760;SDS011;31672;47.638;19.026;2023-07-02T13:13:31;1.98;;;1.00;;
42760;SDS011;31672;47.638;19.026;2023-07-02T13:18:35;2.05;;;0.80;;
42760;SDS011;31672;47.638;19.026;2023-07-02T13:23:39;1.08;;;0.80;;
42760;SDS011;31672;47.638;19.026;2023-07-02T13:28:43;3.53;;;1.02;;
42760;SDS011;31672;47.638;19.026;2023-07-02T13:33:49;1.10;;;0.90;;
42760;SDS011;31672;47.638;19.026;2023-07-02T13:38:53;2.50;;;0.80;;
42760;SDS011;31672;47.638;19.026;2023-07-02T13:43:57;2.20;;;0.90;;
42760;SDS011;31672;47.638;19.026;2023-07-02T13:49:01;2.30;;;1.10;;
42760;SDS011;31672;47.638;19.026;2023-07-02T13:54:05;1.95;;;0.95;;
42760;SDS011;31672;47.638;19.026;2023-07-02T13:59:08;1.33;;;0.80;;
42760;SDS011;31672;47.638;19.026;2023-07-02T14:04:12;1.83;;;0.80;;
42760;SDS011;31672;47.638;19.026;2023-07-02T14:09:18;2.50;;;1.05;;
42760;SDS011;31672;47.638;19.026;2023-07-02T14:14:22;1.50;;;1.00;;
42760;SDS011;31672;47.638;19.026;2023-07-02T14:19:25;1.15;;;1.00;;
42760;SDS011;31672;47.638;19.026;2023-07-02T14:24:29;1.55;;;0.93;;
42760;SDS011;31672;47.638;19.026;2023-07-02T14:29:33;1.35;;;1.00;;
42760;SDS011;31672;47.638;19.026;2023-07-02T14:34:37;5.82;;;1.58;;
42760;SDS011;31672;47.638;19.026;2023-07-02T14:39:40;1.20;;;0.90;;
42760;SDS011;31672;47.638;19.026;2023-07-02T14:45:03;2.63;;;1.20;;
42760;SDS011;31672;47.638;19.026;2023-07-02T14:50:07;2.63;;;1.17;;
42760;SDS011;31672;47.638;19.026;2023-07-02T14:55:12;1.88;;;1.08;;
42760;SDS011;31672;47.638;19.026;2023-07-02T15:00:15;1.50;;;1.20;;
42760;SDS011;31672;47.638;19.026;2023-07-02T15:05:19;1.73;;;1.00;;
42760;SDS011;31672;47.638;19.026;2023-07-02T15:10:22;1.30;;;1.10;;
42760;SDS011;31672;47.638;19.026;2023-07-02T15:15:26;3.05;;;0.95;;
42760;SDS011;31672;47.638;19.026;2023-07-02T15:20:30;2.15;;;1.27;;
42760;SDS011;31672;47.638;19.026;2023-07-02T15:25:33;2.83;;;0.95;;
42760;SDS011;31672;47.638;19.026;2023-07-02T15:30:38;2.60;;;0.80;;
42760;SDS011;31672;47.638;19.026;2023-07-02T15:35:42;2.60;;;1.35;;
42760;SDS011;31672;47.638;19.026;2023-07-02T15:40:46;2.42;;;0.90;;
42760;SDS011;31672;47.638;19.026;2023-07-02T15:45:52;2.13;;;0.98;;
42760;SDS011;31672;47.638;19.026;2023-07-02T15:50:55;1.00;;;0.90;;
42760;SDS011;31672;47.638;19.026;2023-07-02T15:55:59;1.77;;;1.10;;
42760;SDS011;31672;47.638;19.026;2023-07-02T16:01:10;2.85;;;1.25;;
42760;SDS011;31672;47.638;19.026;2023-07-02T16:06:18;1.50;;;1.10;;
42760;SDS011;31672;47.638;19.026;2023-07-02T16:11:22;1.80;;;1.30;;
42760;SDS011;31672;47.638;19.026;2023-07-02T16:16:27;3.10;;;1.13;;
42760;SDS011;31672;47.638;19.026;2023-07-02T16:21:31;3.83;;;1.30;;
42760;SDS011;31672;47.638;19.026;2023-07-02T16:26:36;1.40;;;1.15;;
42760;SDS011;31672;47.638;19.026;2023-07-02T16:31:44;4.40;;;1.10;;
42760;SDS011;31672;47.638;19.026;2023-07-02T16:36:55;2.25;;;1.30;;
42760;SDS011;31672;47.638;19.026;2023-07-02T16:42:00;2.05;;;1.10;;
42760;SDS011;31672;47.638;19.026;2023-07-02T16:47:04;2.85;;;1.20;;
42760;SDS011;31672;47.638;19.026;2023-07-02T16:52:08;2.00;;;1.20;;
42760;SDS011;31672;47.638;19.026;2023-07-02T16:57:11;1.65;;;1.08;;
42760;SDS011;31672;47.638;19.026;2023-07-02T17:02:15;1.40;;;1.10;;
42760;SDS011;31672;47.638;19.026;2023-07-02T17:07:19;2.08;;;1.20;;
42760;SDS011;31672;47.638;19.026;2023-07-02T17:12:22;2.35;;;1.10;;
42760;SDS011;31672;47.638;19.026;2023-07-02T17:17:26;1.60;;;1.20;;
42760;SDS011;31672;47.638;19.026;2023-07-02T17:22:31;2.67;;;1.30;;
42760;SDS011;31672;47.638;19.026;2023-07-02T17:27:35;2.25;;;1.30;;
42760;SDS011;31672;47.638;19.026;2023-07-02T17:32:39;1.50;;;1.10;;
42760;SDS011;31672;47.638;19.026;2023-07-02T17:37:42;2.60;;;1.52;;
42760;SDS011;31672;47.638;19.026;2023-07-02T17:42:46;4.05;;;1.60;;
42760;SDS011;31672;47.638;19.026;2023-07-02T17:47:50;2.33;;;1.38;;
42760;SDS011;31672;47.638;19.026;2023-07-02T17:52:54;3.55;;;1.60;;
42760;SDS011;31672;47.638;19.026;2023-07-02T17:57:58;2.03;;;1.65;;
42760;SDS011;31672;47.638;19.026;2023-07-02T18:03:02;2.40;;;1.30;;
42760;SDS011;31672;47.638;19.026;2023-07-02T18:08:05;2.80;;;1.27;;
42760;SDS011;31672;47.638;19.026;2023-07-02T18:13:09;5.50;;;1.48;;
42760;SDS011;31672;47.638;19.026;2023-07-02T18:18:14;3.83;;;1.67;;
42760;SDS011;31672;47.638;19.026;2023-07-02T18:23:18;3.28;;;1.73;;
42760;SDS011;31672;47.638;19.026;2023-07-02T18:28:23;2.70;;;1.38;;
42760;SDS011;31672;47.638;19.026;2023-07-02T18:33:29;2.55;;;1.30;;
42760;SDS011;31672;47.638;19.026;2023-07-02T18:38:35;1.52;;;1.10;;
42760;SDS011;31672;47.638;19.026;2023-07-02T18:43:38;1.77;;;1.13;;
42760;SDS011;31672;47.638;19.026;2023-07-02T18:48:43;2.33;;;1.38;;
42760;SDS011;31672;47.638;19.026;2023-07-02T18:53:49;1.98;;;1.40;;
42760;SDS011;31672;47.638;19.026;2023-07-02T18:58:53;3.83;;;1.52;;
42760;SDS011;31672;47.638;19.026;2023-07-02T19:03:57;2.03;;;0.85;;
42760;SDS011;31672;47.638;19.026;2023-07-02T19:09:01;2.00;;;1.00;;
42760;SDS011;31672;47.638;19.026;2023-07-02T19:14:05;3.70;;;1.30;;
42760;SDS011;31672;47.638;19.026;2023-07-02T19:19:09;2.53;;;1.20;;
42760;SDS011;31672;47.638;19.026;2023-07-02T19:24:12;3.40;;;1.17;;
42760;SDS011;31672;47.638;19.026;2023-07-02T19:29:19;2.10;;;1.20;;
42760;SDS011;31672;47.638;19.026;2023-07-02T19:34:23;1.98;;;1.15;;
42760;SDS011;31672;47.638;19.026;2023-07-02T19:39:27;3.22;;;1.30;;
42760;SDS011;31672;47.638;19.026;2023-07-02T19:44:33;2.95;;;1.27;;
42760;SDS011;31672;47.638;19.026;2023-07-02T19:49:37;1.83;;;1.20;;
42760;SDS011;31672;47.638;19.026;2023-07-02T19:54:47;3.20;;;1.45;;
42760;SDS011;31672;47.638;19.026;2023-07-02T19:59:53;3.20;;;1.52;;
42760;SDS011;31672;47.638;19.026;2023-07-02T20:04:57;4.65;;;1.60;;
42760;SDS011;31672;47.638;19.026;2023-07-02T20:10:06;3.17;;;1.67;;
42760;SDS011;31672;47.638;19.026;2023-07-02T20:15:10;4.97;;;1.67;;
42760;SDS011;31672;47.638;19.026;2023-07-02T20:20:14;4.07;;;2.13;;
42760;SDS011;31672;47.638;19.026;2023-07-02T20:25:18;2.90;;;1.77;;
42760;SDS011;31672;47.638;19.026;2023-07-02T20:30:42;4.93;;;1.80;;
42760;SDS011;31672;47.638;19.026;2023-07-02T20:35:47;5.10;;;1.65;;
42760;SDS011;31672;47.638;19.026;2023-07-02T20:40:55;3.17;;;1.70;;
42760;SDS011;31672;47.638;19.026;2023-07-02T20:46:04;3.17;;;2.00;;
42760;SDS011;31672;47.638;19.026;2023-07-02T20:51:09;5.45;;;1.88;;
42760;SDS011;31672;47.638;19.026;2023-07-02T20:56:13;4.07;;;1.67;;
42760;SDS011;31672;47.638;19.026;2023-07-02T21:01:17;3.97;;;1.90;;
42760;SDS011;31672;47.638;19.026;2023-07-02T21:06:21;3.33;;;1.70;;
42760;SDS011;31672;47.638;19.026;2023-07-02T21:11:27;4.28;;;1.77;;
42760;SDS011;31672;47.638;19.026;2023-07-02T21:16:36;4.47;;;2.50;;
42760;SDS011;31672;47.638;19.026;2023-07-02T21:21:40;3.65;;;2.00;;
42760;SDS011;31672;47.638;19.026;2023-07-02T21:26:46;3.35;;;1.95;;
42760;SDS011;31672;47.638;19.026;2023-07-02T21:31:50;4.65;;;2.22;;
42760;SDS011;31672;47.638;19.026;2023-07-02T21:36:53;7.53;;;2.17;;
42760;SDS011;31672;47.638;19.026;2023-07-02T21:41:57;5.05;;;2.17;;
42760;SDS011;31672;47.638;19.026;2023-07-02T21:47:01;4.78;;;2.08;;
42760;SDS011;31672;47.638;19.026;2023-07-02T21:52:04;4.18;;;2.22;;
42760;SDS011;31672;47.638;19.026;2023-07-02T21:57:09;6.50;;;2.50;;
42760;SDS011;31672;47.638;19.026;2023-07-02T22:02:12;3.55;;;2.15;;
42760;SDS011;31672;47.638;19.026;2023-07-02T22:07:16;3.03;;;2.15;;
42760;SDS011;31672;47.638;19.026;2023-07-02T22:12:19;4.90;;;2.33;;
42760;SDS011;31672;47.638;19.026;2023-07-02T22:17:23;4.93;;;2.47;;
42760;SDS011;31672;47.638;19.026;2023-07-02T22:22:27;8.48;;;2.67;;
42760;SDS011;31672;47.638;19.026;2023-07-02T22:27:33;4.18;;;2.30;;
42760;SDS011;31672;47.638;19.026;2023-07-02T22:32:37;4.38;;;2.25;;
42760;SDS011;31672;47.638;19.026;2023-07-02T22:37:41;3.35;;;2.22;;
42760;SDS011;31672;47.638;19.026;2023-07-02T22:42:45;5.43;;;2.95;;
42760;SDS011;31672;47.638;19.026;2023-07-02T22:47:48;4.15;;;2.90;;
42760;SDS011;31672;47.638;19.026;2023-07-02T22:52:52;4.25;;;2.40;;
42760;SDS011;31672;47.638;19.026;2023-07-02T22:57:56;4.13;;;2.63;;
42760;SDS011;31672;47.638;19.026;2023-07-02T23:03:00;4.40;;;2.92;;
42760;SDS011;31672;47.638;19.026;2023-07-02T23:08:05;5.82;;;2.78;;
42760;SDS011;31672;47.638;19.026;2023-07-02T23:13:08;4.95;;;3.17;;
42760;SDS011;31672;47.638;19.026;2023-07-02T23:18:12;4.38;;;2.83;;
42760;SDS011;31672;47.638;19.026;2023-07-02T23:23:16;9.40;;;3.40;;
42760;SDS011;31672;47.638;19.026;2023-07-02T23:28:20;5.38;;;2.95;;
42760;SDS011;31672;47.638;19.026;2023-07-02T23:33:26;6.07;;;3.17;;
42760;SDS011;31672;47.638;19.026;2023-07-02T23:38:30;5.63;;;3.10;;
42760;SDS011;31672;47.638;19.026;2023-07-02T23:43:33;5.53;;;3.10;;
42760;SDS011;31672;47.638;19.026;2023-07-02T23:48:37;5.45;;;2.95;;
42760;SDS011;31672;47.638;19.026;2023-07-02T23:53:40;6.47;;;3.10;;
42760;SDS011;31672;47.638;19.026;2023-07-02T23:58:44;5.18;;;3.42;;
